Time;durP1;ratioP1;P1;durP2;ratioP2;P2;SDS_P1;SDS_P2;PMS_P1;PMS_P2;Temp;Humidity;BMP_temperature;BMP_pressure;BME280_temperature;BME280_humidity;BME280_pressure;Samples;Min_cycle;Max_cycle;Signal;HPM_P1;HPM_P2
2023/12/29 00:01:14;;;;;;;0.20;0.20;;;9.90;99.90;;;;;;5125044;27;20413;-80
2023/12/29 00:03:40;;;;;;;0.40;0.40;;;9.90;99.90;;;;;;5106362;27;20171;-80
2023/12/29 00:06:06;;;;;;;0.90;0.90;;;9.90;99.90;;;;;;5123620;27;20035;-79
2023/12/29 00:08:32;;;;;;;0.30;0.30;;;9.90;99.90;;;;;;5123903;27;21284;-82
2023/12/29 00:10:59;;;;;;;0.38;0.38;;;9.90;99.90;;;;;;5134795;27;20391;-80
2023/12/29 00:13:25;;;;;;;0.50;0.50;;;10.00;99.90;;;;;;5130387;27;20395;-82
2023/12/29 00:15:55;;;;;;;2.88;2.60;;;10.00;99.90;;;;;;5133217;27;20325;-80
2023/12/29 00:18:20;;;;;;;0.40;0.40;;;10.00;99.90;;;;;;5125895;27;20045;-79
2023/12/29 00:20:46;;;;;;;0.40;0.40;;;10.00;99.90;;;;;;5107981;27;20039;-78
2023/12/29 00:23:12;;;;;;;0.85;0.85;;;10.00;99.90;;;;;;5082033;27;20062;-81
2023/12/29 00:25:38;;;;;;;2.00;1.48;;;10.00;99.90;;;;;;5112466;27;20113;-80
2023/12/29 00:28:04;;;;;;;;;;;10.00;99.90;;;;;;5127664;27;20053;-79
2023/12/29 00:30:30;;;;;;;0.50;0.50;;;10.00;99.90;;;;;;5130049;27;20307;-77
2023/12/29 00:32:56;;;;;;;1.05;1.05;;;9.90;99.90;;;;;;5110284;27;20039;-77
2023/12/29 00:35:21;;;;;;;;;;;9.90;99.90;;;;;;5110936;27;20039;-81
2023/12/29 00:37:47;;;;;;;0.40;0.40;;;9.70;99.90;;;;;;5125886;27;20014;-80
2023/12/29 00:40:13;;;;;;;0.32;0.32;;;9.60;99.90;;;;;;5110508;27;20043;-80
2023/12/29 00:42:39;;;;;;;0.98;0.98;;;9.60;99.90;;;;;;5126144;27;20353;-78
2023/12/29 00:45:06;;;;;;;1.58;1.52;;;9.60;99.90;;;;;;5125098;27;20127;-80
2023/12/29 00:47:31;;;;;;;0.30;0.30;;;9.50;99.90;;;;;;5127516;27;20776;-78
2023/12/29 00:49:57;;;;;;;0.90;0.90;;;9.40;99.90;;;;;;5111024;27;20067;-83
2023/12/29 00:52:23;;;;;;;0.43;0.43;;;9.40;99.90;;;;;;5130944;27;20376;-81
2023/12/29 00:54:48;;;;;;;0.45;0.45;;;9.40;99.90;;;;;;5128375;27;20039;-77
2023/12/29 00:57:14;;;;;;;1.30;1.20;;;9.30;99.90;;;;;;5127995;27;20552;-80
2023/12/29 00:59:41;;;;;;;0.40;0.40;;;9.30;99.90;;;;;;5110319;28;20099;-81
2023/12/29 01:02:07;;;;;;;0.40;0.40;;;9.40;99.90;;;;;;5127910;27;20046;-80
2023/12/29 01:04:33;;;;;;;0.28;0.28;;;9.40;99.90;;;;;;5136241;27;20125;-83
2023/12/29 01:06:59;;;;;;;0.50;0.50;;;9.40;99.90;;;;;;5099031;27;20047;-78
2023/12/29 01:09:26;;;;;;;0.40;0.40;;;9.40;99.90;;;;;;5128373;27;20070;-79
2023/12/29 01:11:52;;;;;;;1.45;1.35;;;9.40;99.90;;;;;;5110870;28;20093;-81
2023/12/29 01:14:18;;;;;;;0.50;0.50;;;9.40;99.90;;;;;;5127836;27;20546;-80
2023/12/29 01:16:43;;;;;;;2.55;0.85;;;9.40;99.90;;;;;;5109990;28;20425;-79
2023/12/29 01:19:09;;;;;;;0.32;0.32;;;9.40;99.90;;;;;;5110747;28;20125;-82
2023/12/29 01:21:38;;;;;;;6.78;1.52;;;9.40;99.90;;;;;;5128200;27;20089;-82
2023/12/29 01:24:04;;;;;;;0.38;0.38;;;9.30;99.90;;;;;;5110527;28;20541;-82
2023/12/29 01:26:30;;;;;;;0.55;0.55;;;9.30;99.90;;;;;;5128266;28;20074;-80
2023/12/29 01:28:56;;;;;;;0.77;0.77;;;9.20;99.90;;;;;;5110791;28;20550;-81
2023/12/29 01:31:22;;;;;;;0.40;0.40;;;9.20;99.90;;;;;;5129039;27;20070;-79
2023/12/29 01:33:48;;;;;;;0.40;0.40;;;9.30;99.90;;;;;;5127247;27;20045;-81
2023/12/29 01:36:19;;;;;;;0.30;0.30;;;9.30;99.90;;;;;;5127939;27;20460;-80
2023/12/29 01:38:45;;;;;;;0.63;0.63;;;9.30;99.90;;;;;;5127551;27;20126;-81
2023/12/29 01:41:11;;;;;;;0.45;0.45;;;9.30;99.90;;;;;;5114637;27;20121;-78
2023/12/29 01:43:56;;;;;;;0.40;0.40;;;9.30;99.90;;;;;;5134693;27;20034;-85
2023/12/29 01:46:24;;;;;;;1.25;1.15;;;9.30;99.90;;;;;;5129816;27;20076;-79
2023/12/29 01:48:49;;;;;;;0.73;0.63;;;9.30;99.90;;;;;;5127637;27;20082;-80
2023/12/29 01:51:17;;;;;;;0.30;0.30;;;9.40;99.90;;;;;;5126750;28;20161;-80
2023/12/29 01:53:43;;;;;;;0.47;0.47;;;9.30;99.90;;;;;;5128101;27;20088;-80
2023/12/29 01:56:10;;;;;;;0.73;0.73;;;9.30;99.90;;;;;;5129067;27;20042;-81
2023/12/29 01:58:35;;;;;;;0.50;0.50;;;9.40;99.90;;;;;;5129393;27;20067;-76
2023/12/29 02:01:02;;;;;;;0.65;0.65;;;9.50;99.90;;;;;;5129270;27;20097;-79
2023/12/29 02:03:28;;;;;;;0.43;0.43;;;9.40;99.90;;;;;;5130654;27;20066;-79
2023/12/29 02:05:55;;;;;;;0.50;0.50;;;9.40;99.90;;;;;;5131197;27;20479;-77
2023/12/29 02:08:24;;;;;;;0.85;0.85;;;9.50;99.90;;;;;;5128646;27;20035;-82
2023/12/29 02:10:50;;;;;;;0.30;0.30;;;9.40;99.90;;;;;;5133793;27;20043;-77
2023/12/29 02:13:15;;;;;;;0.70;0.70;;;9.30;99.90;;;;;;5131737;27;20103;-79
2023/12/29 02:15:42;;;;;;;0.55;0.55;;;9.30;99.90;;;;;;5131837;27;20135;-80
2023/12/29 02:18:09;;;;;;;;;;;9.30;99.90;;;;;;5114940;27;20088;-77
2023/12/29 02:20:36;;;;;;;0.40;0.40;;;9.20;99.90;;;;;;5133709;27;20420;-84
2023/12/29 02:23:02;;;;;;;0.32;0.32;;;9.10;99.90;;;;;;5134675;27;20049;-77
2023/12/29 02:25:29;;;;;;;0.30;0.30;;;9.10;99.90;;;;;;5130751;27;20290;-78
2023/12/29 02:28:00;;;;;;;0.40;0.40;;;9.10;99.90;;;;;;5130780;27;20094;-81
2023/12/29 02:30:49;;;;;;;0.35;0.35;;;9.10;99.90;;;;;;5111359;27;20043;-80
2023/12/29 02:33:21;;;;;;;0.80;0.80;;;9.10;99.90;;;;;;5113553;27;20172;-80
2023/12/29 02:35:51;;;;;;;0.30;0.30;;;9.00;99.90;;;;;;5133752;27;20039;-78
2023/12/29 02:38:17;;;;;;;0.40;0.40;;;9.00;99.90;;;;;;5129468;27;20039;-83
2023/12/29 02:40:43;;;;;;;0.50;0.50;;;9.10;99.90;;;;;;5128489;27;20105;-81
2023/12/29 02:43:09;;;;;;;0.40;0.40;;;9.10;99.90;;;;;;5118635;27;20100;-82
2023/12/29 02:45:35;;;;;;;0.38;0.38;;;9.10;99.90;;;;;;5133823;27;20500;-83
2023/12/29 02:48:01;;;;;;;0.50;0.50;;;9.00;99.90;;;;;;5132028;27;20134;-79
2023/12/29 02:50:26;;;;;;;0.40;0.40;;;9.00;99.90;;;;;;5130084;27;20163;-82
2023/12/29 02:52:52;;;;;;;2.83;2.00;;;8.90;99.90;;;;;;5135262;27;20047;-80
2023/12/29 02:55:18;;;;;;;0.35;0.35;;;8.80;99.90;;;;;;5132258;27;20514;-78
2023/12/29 02:57:44;;;;;;;25.30;1.20;;;8.80;99.90;;;;;;5131493;27;20041;-78
2023/12/29 03:00:09;;;;;;;0.40;0.40;;;8.80;99.90;;;;;;5112213;27;20429;-83
2023/12/29 03:02:35;;;;;;;0.35;0.35;;;8.80;99.90;;;;;;5114262;27;20062;-80
2023/12/29 03:05:01;;;;;;;0.55;0.55;;;8.90;99.90;;;;;;5137745;27;20407;-79
2023/12/29 03:07:27;;;;;;;0.60;0.60;;;9.00;99.90;;;;;;5129323;27;20047;-80
2023/12/29 03:09:53;;;;;;;4.78;1.80;;;9.00;99.90;;;;;;5134274;27;20049;-79
2023/12/29 03:12:19;;;;;;;0.40;0.40;;;9.00;99.90;;;;;;5118414;27;20076;-80
2023/12/29 03:14:46;;;;;;;0.35;0.35;;;9.00;99.90;;;;;;5132049;27;20164;-80
2023/12/29 03:17:12;;;;;;;0.40;0.40;;;9.00;99.90;;;;;;5132259;27;20045;-78
2023/12/29 03:19:38;;;;;;;5.25;4.03;;;9.00;99.90;;;;;;5115612;27;20367;-81
2023/12/29 03:22:04;;;;;;;0.30;0.30;;;9.00;99.90;;;;;;5114022;27;20076;-81
2023/12/29 03:24:30;;;;;;;0.30;0.30;;;9.00;99.90;;;;;;5117529;27;20035;-79
2023/12/29 03:26:55;;;;;;;0.40;0.40;;;9.00;99.90;;;;;;5133285;27;20095;-80
2023/12/29 03:29:21;;;;;;;0.50;0.50;;;9.10;99.90;;;;;;5133915;27;20446;-83
2023/12/29 03:31:47;;;;;;;0.45;0.35;;;9.10;99.90;;;;;;5131115;27;20043;-81
2023/12/29 03:34:12;;;;;;;3.17;0.95;;;9.10;99.90;;;;;;5090303;27;20043;-79
2023/12/29 03:36:38;;;;;;;0.63;0.63;;;9.20;99.90;;;;;;5119375;27;20051;-78
2023/12/29 03:39:04;;;;;;;0.57;0.50;;;9.30;99.90;;;;;;5128457;27;20472;-81
2023/12/29 03:41:30;;;;;;;0.77;0.77;;;9.50;99.90;;;;;;5128911;27;20046;-80
2023/12/29 03:43:56;;;;;;;0.60;0.60;;;9.50;99.90;;;;;;5110882;27;20043;-78
2023/12/29 03:46:22;;;;;;;;;;;9.60;99.90;;;;;;5130491;27;20100;-79
2023/12/29 03:48:48;;;;;;;0.40;0.40;;;9.60;99.90;;;;;;5129606;27;19923;-81
2023/12/29 03:51:15;;;;;;;0.50;0.50;;;9.70;99.90;;;;;;5128257;27;20046;-80
2023/12/29 03:53:41;;;;;;;0.40;0.40;;;10.20;99.90;;;;;;5126592;27;20069;-77
2023/12/29 03:56:14;;;;;;;;;;;9.70;99.90;;;;;;5128428;27;20490;-79
2023/12/29 03:58:40;;;;;;;0.40;0.40;;;9.70;99.90;;;;;;5129686;27;19919;-79
2023/12/29 04:01:13;;;;;;;0.38;0.38;;;9.70;99.90;;;;;;5128182;27;20436;-82
2023/12/29 04:03:39;;;;;;;0.50;0.50;;;9.60;99.90;;;;;;5130255;27;20484;-79
2023/12/29 04:06:05;;;;;;;;;;;9.50;99.90;;;;;;5131587;27;20034;-79
2023/12/29 04:08:30;;;;;;;7.97;2.70;;;9.60;99.90;;;;;;5126709;27;19919;-80
2023/12/29 04:10:56;;;;;;;0.35;0.35;;;9.60;99.90;;;;;;5129398;27;20082;-80
2023/12/29 04:13:22;;;;;;;0.50;0.50;;;9.60;99.90;;;;;;5128494;27;20119;-78
2023/12/29 04:15:48;;;;;;;0.40;0.40;;;9.50;99.90;;;;;;5129321;27;20031;-83
2023/12/29 04:18:13;;;;;;;0.73;0.73;;;9.70;99.90;;;;;;5130047;27;20043;-77
2023/12/29 04:20:39;;;;;;;4.97;1.90;;;9.60;99.90;;;;;;5127901;27;20125;-79
2023/12/29 04:23:07;;;;;;;0.95;0.90;;;9.70;99.90;;;;;;5127410;27;20035;-81
2023/12/29 04:25:33;;;;;;;0.30;0.30;;;9.70;99.90;;;;;;5125715;27;20125;-79
2023/12/29 04:27:59;;;;;;;0.50;0.50;;;9.60;99.90;;;;;;5125702;27;20604;-81
2023/12/29 04:30:25;;;;;;;0.47;0.47;;;9.60;99.90;;;;;;5111018;27;20476;-77
2023/12/29 04:32:50;;;;;;;0.40;0.40;;;9.50;99.90;;;;;;5126686;27;20138;-78
2023/12/29 04:35:16;;;;;;;0.30;0.30;;;9.50;99.90;;;;;;5109262;28;20035;-79
2023/12/29 04:37:49;;;;;;;2.97;2.53;;;9.60;99.90;;;;;;5110112;27;20031;-78
2023/12/29 04:40:15;;;;;;;0.47;0.47;;;9.60;99.90;;;;;;5129486;27;20118;-77
2023/12/29 04:42:40;;;;;;;0.35;0.35;;;9.70;99.90;;;;;;5131465;27;20126;-78
2023/12/29 04:45:07;;;;;;;0.40;0.40;;;9.50;99.90;;;;;;5127387;27;20456;-81
2023/12/29 04:47:33;;;;;;;0.50;0.50;;;9.50;99.90;;;;;;5109921;27;20049;-78
2023/12/29 04:49:58;;;;;;;0.30;0.30;;;9.40;99.90;;;;;;5109821;28;20047;-78
2023/12/29 04:52:24;;;;;;;0.40;0.40;;;9.50;99.90;;;;;;5110005;28;20444;-81
2023/12/29 04:54:50;;;;;;;1.02;1.02;;;9.50;99.90;;;;;;5118464;27;20039;-83
2023/12/29 04:57:16;;;;;;;1.10;1.10;;;9.50;99.90;;;;;;5128653;27;20031;-81
2023/12/29 04:59:41;;;;;;;1.65;1.55;;;9.60;99.90;;;;;;5127519;27;20080;-78
2023/12/29 05:02:07;;;;;;;0.40;0.40;;;9.60;99.90;;;;;;5096085;27;20150;-81
2023/12/29 05:04:32;;;;;;;0.90;0.88;;;9.70;99.90;;;;;;5128263;27;20047;-80
2023/12/29 05:06:58;;;;;;;5.18;1.15;;;9.80;99.90;;;;;;5129972;27;20070;-80
2023/12/29 05:09:24;;;;;;;1.35;1.35;;;9.70;99.90;;;;;;5130740;27;20047;-80
2023/12/29 05:11:50;;;;;;;0.50;0.50;;;9.70;99.90;;;;;;5127040;27;20088;-82
2023/12/29 05:14:15;;;;;;;0.63;0.63;;;9.60;99.90;;;;;;5111002;27;20127;-82
2023/12/29 05:16:42;;;;;;;0.40;0.40;;;9.60;99.90;;;;;;5133255;27;20038;-78
2023/12/29 05:19:07;;;;;;;10.40;1.65;;;9.60;99.90;;;;;;5106810;27;20455;-79
2023/12/29 05:21:33;;;;;;;1.95;1.85;;;9.60;99.90;;;;;;5109103;28;20484;-81
2023/12/29 05:23:59;;;;;;;0.57;0.57;;;9.50;99.90;;;;;;5126125;28;20551;-79
2023/12/29 05:26:25;;;;;;;0.90;0.90;;;9.50;99.90;;;;;;5128655;27;20493;-76
2023/12/29 05:28:51;;;;;;;0.60;0.60;;;9.50;99.90;;;;;;5136459;27;20443;-77
2023/12/29 05:31:17;;;;;;;0.70;0.63;;;9.60;99.90;;;;;;5140468;27;20043;-79
2023/12/29 05:33:43;;;;;;;0.35;0.35;;;9.60;99.90;;;;;;5137211;27;20047;-80
2023/12/29 05:36:10;;;;;;;0.30;0.30;;;9.60;99.90;;;;;;5114349;27;20054;-80
2023/12/29 05:38:38;;;;;;;0.40;0.40;;;9.60;99.90;;;;;;5130127;27;20043;-83
2023/12/29 05:41:04;;;;;;;1.75;1.27;;;9.60;99.90;;;;;;5132073;27;20484;-78
2023/12/29 05:43:32;;;;;;;0.30;0.30;;;9.60;99.90;;;;;;5117899;27;20468;-81
2023/12/29 05:45:58;;;;;;;1.10;1.10;;;9.60;99.90;;;;;;5119803;27;20078;-79
2023/12/29 05:48:24;;;;;;;1.25;1.17;;;9.50;99.90;;;;;;5133856;27;20495;-78
2023/12/29 05:50:53;;;;;;;0.40;0.40;;;9.50;99.90;;;;;;5118288;27;20076;-82
2023/12/29 05:53:19;;;;;;;0.30;0.30;;;9.60;99.90;;;;;;5115318;27;20160;-79
2023/12/29 05:55:45;;;;;;;0.75;0.75;;;9.60;99.90;;;;;;5114303;27;20055;-81
2023/12/29 05:58:11;;;;;;;0.40;0.40;;;9.60;99.90;;;;;;5132893;27;20047;-82
2023/12/29 06:00:38;;;;;;;0.45;0.45;;;9.60;99.90;;;;;;5130771;27;20430;-77
2023/12/29 06:03:04;;;;;;;0.30;0.30;;;9.60;99.90;;;;;;5132061;27;20125;-76
2023/12/29 06:05:30;;;;;;;0.55;0.55;;;9.50;99.90;;;;;;5130498;27;20056;-80
2023/12/29 06:07:56;;;;;;;0.30;0.30;;;9.50;99.90;;;;;;5130119;27;20529;-79
2023/12/29 06:10:22;;;;;;;;;;;9.50;99.90;;;;;;5135730;27;20043;-80
2023/12/29 06:12:48;;;;;;;0.60;0.60;;;9.50;99.90;;;;;;5114251;27;19942;-80
2023/12/29 06:15:16;;;;;;;0.50;0.50;;;9.50;99.90;;;;;;5131648;27;20031;-80
2023/12/29 06:17:43;;;;;;;0.88;0.88;;;9.50;99.90;;;;;;5115054;27;20062;-77
2023/12/29 06:20:10;;;;;;;2.83;0.70;;;9.50;99.90;;;;;;5129807;27;20043;-82
2023/12/29 06:22:44;;;;;;;0.40;0.40;;;9.50;99.90;;;;;;5114243;27;20058;-77
2023/12/29 06:25:11;;;;;;;1.92;0.68;;;9.40;99.90;;;;;;5111658;27;20047;-79
2023/12/29 06:27:38;;;;;;;2.00;1.85;;;9.30;99.90;;;;;;5110721;27;20055;-80
2023/12/29 06:30:07;;;;;;;0.50;0.50;;;9.30;99.90;;;;;;5128559;27;20047;-82
2023/12/29 06:32:33;;;;;;;0.50;0.50;;;9.20;99.90;;;;;;5107184;27;20043;-79
2023/12/29 06:34:59;;;;;;;1.05;1.05;;;9.00;99.90;;;;;;5125580;27;20437;-82
2023/12/29 06:37:25;;;;;;;0.50;0.50;;;9.00;99.90;;;;;;5127322;27;20070;-84
2023/12/29 06:39:50;;;;;;;0.32;0.32;;;8.90;99.90;;;;;;5130593;27;20031;-81
2023/12/29 06:42:16;;;;;;;0.45;0.45;;;8.90;99.90;;;;;;5127480;27;20344;-82
2023/12/29 06:44:42;;;;;;;0.47;0.47;;;8.80;99.90;;;;;;5108376;27;20130;-77
2023/12/29 06:47:09;;;;;;;0.40;0.40;;;8.70;99.90;;;;;;5110154;27;20046;-81
2023/12/29 06:49:35;;;;;;;0.45;0.45;;;8.70;99.90;;;;;;5131245;27;20055;-77
2023/12/29 06:52:01;;;;;;;0.40;0.40;;;8.60;99.90;;;;;;5128088;27;20433;-78
2023/12/29 06:54:27;;;;;;;0.75;0.75;;;8.50;99.90;;;;;;5127386;27;20035;-82
2023/12/29 06:56:53;;;;;;;0.52;0.52;;;8.50;99.90;;;;;;5128396;27;20039;-80
2023/12/29 06:59:19;;;;;;;0.40;0.40;;;8.50;99.90;;;;;;5130036;27;20035;-79
2023/12/29 07:01:46;;;;;;;0.47;0.47;;;8.50;99.90;;;;;;5128112;27;20050;-81
2023/12/29 07:04:12;;;;;;;0.40;0.40;;;8.50;99.90;;;;;;5098637;27;20044;-79
2023/12/29 07:06:38;;;;;;;2.90;1.65;;;8.50;99.90;;;;;;5122873;27;20054;-80
2023/12/29 07:09:04;;;;;;;;;;;8.60;99.90;;;;;;5124829;27;20512;-78
2023/12/29 07:11:30;;;;;;;0.40;0.40;;;8.60;99.90;;;;;;5123092;27;19930;-80
2023/12/29 07:13:56;;;;;;;0.50;0.50;;;8.70;99.90;;;;;;5124520;27;20161;-79
2023/12/29 07:16:22;;;;;;;0.45;0.45;;;8.70;99.90;;;;;;5124441;27;20456;-79
2023/12/29 07:18:48;;;;;;;0.45;0.45;;;8.70;99.90;;;;;;5107137;27;20058;-80
2023/12/29 07:21:16;;;;;;;0.40;0.40;;;8.70;99.90;;;;;;5132302;27;20512;-84
2023/12/29 07:23:42;;;;;;;0.85;0.85;;;8.80;99.90;;;;;;5122160;27;20046;-79
2023/12/29 07:26:08;;;;;;;0.43;0.43;;;8.80;99.90;;;;;;5136919;27;20054;-78
2023/12/29 07:28:33;;;;;;;0.40;0.40;;;8.80;99.90;;;;;;5128273;27;20067;-80
2023/12/29 07:31:00;;;;;;;0.40;0.40;;;8.90;99.90;;;;;;5117303;27;20053;-79
2023/12/29 07:33:25;;;;;;;0.47;0.47;;;8.90;99.90;;;;;;5114247;27;20040;-79
2023/12/29 07:35:51;;;;;;;0.43;0.43;;;9.00;99.90;;;;;;5130887;27;20083;-82
2023/12/29 07:38:17;;;;;;;0.68;0.68;;;9.00;99.90;;;;;;5135380;27;20545;-79
2023/12/29 07:40:44;;;;;;;0.40;0.40;;;8.90;99.90;;;;;;5124889;27;20039;-78
2023/12/29 07:43:09;;;;;;;0.40;0.40;;;8.70;99.90;;;;;;5133691;27;20483;-80
2023/12/29 07:45:35;;;;;;;0.40;0.40;;;8.60;99.90;;;;;;5133222;27;20050;-81
2023/12/29 07:48:05;;;;;;;0.75;0.75;;;8.50;99.90;;;;;;5099360;27;20047;-76
2023/12/29 07:50:30;;;;;;;0.40;0.40;;;8.50;99.90;;;;;;5108522;27;20471;-82
2023/12/29 07:52:56;;;;;;;0.45;0.45;;;8.50;99.90;;;;;;5108201;27;20108;-81
2023/12/29 07:55:22;;;;;;;0.93;0.93;;;8.50;99.90;;;;;;5115571;27;20087;-79
2023/12/29 07:57:48;;;;;;;0.60;0.60;;;8.50;99.90;;;;;;5129879;27;20030;-78
2023/12/29 08:00:17;;;;;;;1.20;1.20;;;8.50;99.90;;;;;;5112088;27;20114;-82
2023/12/29 08:02:43;;;;;;;0.43;0.43;;;8.60;99.90;;;;;;5119125;27;20389;-79
2023/12/29 08:05:08;;;;;;;0.68;0.68;;;8.70;99.90;;;;;;5136750;27;20042;-81
2023/12/29 08:07:37;;;;;;;0.40;0.40;;;8.80;99.90;;;;;;5125378;27;20051;-82
2023/12/29 08:10:06;;;;;;;1.63;1.55;;;8.80;99.90;;;;;;5106572;27;20046;-80
2023/12/29 08:12:33;;;;;;;0.40;0.40;;;8.80;99.90;;;;;;5121587;27;20480;-79
2023/12/29 08:15:00;;;;;;;0.40;0.40;;;8.80;99.90;;;;;;5120311;27;20071;-82
2023/12/29 08:17:26;;;;;;;0.30;0.30;;;8.90;99.90;;;;;;5125182;27;20054;-78
2023/12/29 08:19:51;;;;;;;0.40;0.40;;;8.90;99.90;;;;;;5119431;27;20044;-78
2023/12/29 08:22:18;;;;;;;0.60;0.60;;;9.00;99.90;;;;;;5114645;27;20039;-80
2023/12/29 08:24:44;;;;;;;0.70;0.70;;;9.00;99.90;;;;;;5110086;27;20071;-79
2023/12/29 08:27:12;;;;;;;0.43;0.43;;;9.00;99.90;;;;;;5121027;27;20100;-79
2023/12/29 08:29:38;;;;;;;0.40;0.40;;;9.00;99.90;;;;;;5132257;27;20047;-78
2023/12/29 08:32:04;;;;;;;0.40;0.40;;;9.10;99.90;;;;;;5113860;27;20050;-78
2023/12/29 08:34:30;;;;;;;;;;;9.10;99.90;;;;;;5129292;27;20407;-82
2023/12/29 08:36:56;;;;;;;0.55;0.55;;;9.20;99.90;;;;;;5128092;27;19919;-80
2023/12/29 08:39:22;;;;;;;;;;;9.20;99.90;;;;;;5112211;27;20155;-80
2023/12/29 08:41:49;;;;;;;0.40;0.40;;;9.20;99.90;;;;;;5126986;27;19965;-81
2023/12/29 08:44:15;;;;;;;2.25;1.02;;;9.20;99.90;;;;;;5125646;27;20609;-78
2023/12/29 08:46:41;;;;;;;0.50;0.50;;;9.20;99.90;;;;;;5129068;27;20118;-79
2023/12/29 08:49:07;;;;;;;1.05;1.05;;;9.20;99.90;;;;;;5117358;27;20039;-80
2023/12/29 08:51:32;;;;;;;1.33;1.23;;;9.20;99.90;;;;;;5106715;27;20038;-78
2023/12/29 08:53:59;;;;;;;0.30;0.30;;;9.20;99.90;;;;;;5119804;27;20047;-81
2023/12/29 08:56:25;;;;;;;0.50;0.50;;;9.20;99.90;;;;;;5118376;27;20050;-78
2023/12/29 08:58:51;;;;;;;0.47;0.47;;;9.20;99.90;;;;;;5113511;27;20045;-78
2023/12/29 09:01:19;;;;;;;0.52;0.52;;;9.20;99.90;;;;;;5107972;28;20650;-80
2023/12/29 09:03:45;;;;;;;1.08;0.65;;;9.20;99.90;;;;;;5118373;27;20050;-77
2023/12/29 09:06:11;;;;;;;0.40;0.40;;;9.20;99.90;;;;;;5126944;27;20055;-80
2023/12/29 09:08:36;;;;;;;;;;;9.10;99.90;;;;;;5125068;27;20469;-77
2023/12/29 09:11:02;;;;;;;0.40;0.40;;;9.10;99.90;;;;;;5124523;27;19922;-80
2023/12/29 09:13:28;;;;;;;3.20;2.95;;;9.10;99.90;;;;;;5122141;27;20528;-79
2023/12/29 09:15:58;;;;;;;0.40;0.40;;;9.10;99.90;;;;;;5121667;27;20051;-79
2023/12/29 09:18:24;;;;;;;0.60;0.60;;;9.10;99.90;;;;;;5102262;27;20041;-77
2023/12/29 09:20:50;;;;;;;1.92;1.83;;;9.20;99.90;;;;;;5111122;27;20035;-79
2023/12/29 09:23:16;;;;;;;0.30;0.30;;;9.20;99.90;;;;;;5104358;27;20455;-81
2023/12/29 09:25:41;;;;;;;0.40;0.40;;;9.20;99.90;;;;;;5103717;27;20043;-76
2023/12/29 09:28:07;;;;;;;0.50;0.50;;;9.30;99.90;;;;;;5132827;27;20055;-81
2023/12/29 09:30:33;;;;;;;;;;;9.30;99.90;;;;;;5130759;27;20138;-82
2023/12/29 09:32:59;;;;;;;0.45;0.45;;;9.20;99.90;;;;;;5133309;27;20044;-78
2023/12/29 09:35:24;;;;;;;1.42;1.33;;;9.20;99.90;;;;;;5128541;27;20472;-79
2023/12/29 09:37:50;;;;;;;0.30;0.30;;;9.20;99.90;;;;;;5129265;27;20486;-77
2023/12/29 09:40:16;;;;;;;0.40;0.40;;;9.30;99.90;;;;;;5143186;27;20043;-80
2023/12/29 09:42:47;;;;;;;0.50;0.50;;;9.40;99.90;;;;;;5140258;27;20054;-81
2023/12/29 09:45:13;;;;;;;0.57;0.57;;;9.40;99.90;;;;;;5131454;27;20039;-78
2023/12/29 09:47:42;;;;;;;0.68;0.68;;;9.40;99.90;;;;;;5112843;27;20404;-82
2023/12/29 09:50:12;;;;;;;0.30;0.30;;;9.40;99.90;;;;;;5134785;27;20468;-81
2023/12/29 09:52:41;;;;;;;0.32;0.32;;;9.50;99.90;;;;;;5130374;27;20111;-78
2023/12/29 09:55:11;;;;;;;0.40;0.40;;;9.40;99.90;;;;;;5124212;27;20443;-81
2023/12/29 09:57:40;;;;;;;0.63;0.63;;;9.50;99.90;;;;;;5134338;27;20042;-77
2023/12/29 10:00:11;;;;;;;1.17;1.00;;;9.50;99.90;;;;;;5117807;27;20128;-79
2023/12/29 10:02:38;;;;;;;1.27;1.27;;;9.60;99.90;;;;;;5130113;27;20054;-80
2023/12/29 10:05:05;;;;;;;0.43;0.43;;;9.60;99.90;;;;;;5111636;27;20118;-80
2023/12/29 10:07:38;;;;;;;0.40;0.40;;;9.60;99.90;;;;;;5101418;27;20035;-81
2023/12/29 10:10:06;;;;;;;1.77;1.45;;;9.70;99.90;;;;;;5114767;27;20069;-83
2023/12/29 10:12:33;;;;;;;0.30;0.30;;;9.70;99.90;;;;;;5113845;27;20059;-82
2023/12/29 10:15:09;;;;;;;2.45;2.25;;;9.70;99.90;;;;;;5097021;27;20035;-83
2023/12/29 10:18:06;;;;;;;0.85;0.85;;;9.70;99.90;;;;;;5133297;27;20035;-83
2023/12/29 10:21:02;;;;;;;0.57;0.57;;;9.80;99.90;;;;;;5135370;27;20096;-80
2023/12/29 10:23:53;;;;;;;0.40;0.40;;;9.80;99.90;;;;;;5111930;27;20480;-85
2023/12/29 10:26:19;;;;;;;7.50;1.95;;;9.80;99.90;;;;;;5132432;27;20049;-81
2023/12/29 10:28:47;;;;;;;0.30;0.30;;;9.80;99.90;;;;;;5129661;27;20515;-83
2023/12/29 10:31:16;;;;;;;0.50;0.50;;;9.80;99.90;;;;;;5132555;27;20459;-77
2023/12/29 10:33:42;;;;;;;0.30;0.30;;;9.70;99.90;;;;;;5099540;27;20090;-78
2023/12/29 10:36:08;;;;;;;0.68;0.68;;;9.80;99.90;;;;;;5117188;27;20446;-79
2023/12/29 10:38:34;;;;;;;1.33;0.75;;;9.90;99.90;;;;;;5130935;27;20064;-80
2023/12/29 10:41:19;;;;;;;0.30;0.30;;;10.00;99.90;;;;;;5131865;27;20042;-77
2023/12/29 10:43:54;;;;;;;0.60;0.60;;;9.90;99.90;;;;;;5130804;27;20096;-80
2023/12/29 10:46:20;;;;;;;0.30;0.30;;;9.90;99.90;;;;;;5107501;27;20112;-76
2023/12/29 10:48:46;;;;;;;0.40;0.40;;;9.80;99.90;;;;;;5116831;27;20038;-78
2023/12/29 10:51:12;;;;;;;0.50;0.50;;;11.00;99.90;;;;;;5136757;27;20373;-81
2023/12/29 10:53:38;;;;;;;0.40;0.40;;;9.70;99.90;;;;;;5139124;27;20064;-75
2023/12/29 10:56:04;;;;;;;0.32;0.32;;;9.70;99.90;;;;;;5136020;27;20070;-76
2023/12/29 10:58:32;;;;;;;1.55;0.73;;;9.70;99.90;;;;;;5108905;27;20073;-77
2023/12/29 11:00:59;;;;;;;0.43;0.43;;;9.60;99.90;;;;;;5134870;27;20054;-77
2023/12/29 11:03:25;;;;;;;0.77;0.77;;;9.60;99.90;;;;;;5136089;27;20103;-76
2023/12/29 11:05:58;;;;;;;;;;;9.60;99.90;;;;;;5137960;27;20043;-76
2023/12/29 11:08:24;;;;;;;0.30;0.30;;;9.60;99.90;;;;;;5135006;27;20280;-77
2023/12/29 11:10:50;;;;;;;0.32;0.32;;;9.60;99.90;;;;;;5132517;27;20093;-78
2023/12/29 11:13:16;;;;;;;0.50;0.50;;;9.60;99.90;;;;;;5132359;27;20039;-77
2023/12/29 11:15:46;;;;;;;0.40;0.40;;;9.60;99.90;;;;;;5137187;27;20058;-80
2023/12/29 11:18:16;;;;;;;0.40;0.40;;;9.60;99.90;;;;;;5137789;27;20037;-77
2023/12/29 11:20:44;;;;;;;0.40;0.40;;;9.60;99.90;;;;;;5143246;27;20027;-76
2023/12/29 11:23:13;;;;;;;0.40;0.40;;;9.50;99.90;;;;;;5138462;27;20039;-77
2023/12/29 11:25:39;;;;;;;0.40;0.40;;;9.50;99.90;;;;;;5122435;27;20045;-77
2023/12/29 11:28:09;;;;;;;0.30;0.30;;;9.60;99.90;;;;;;5139045;27;20144;-78
2023/12/29 11:30:35;;;;;;;0.40;0.40;;;9.60;99.90;;;;;;5140650;27;20047;-77
2023/12/29 11:33:10;;;;;;;0.40;0.40;;;9.50;99.90;;;;;;5128665;27;20078;-79
2023/12/29 11:35:48;;;;;;;0.30;0.30;;;9.40;99.90;;;;;;5133842;27;20072;-78
2023/12/29 11:38:37;;;;;;;0.40;0.40;;;9.40;99.90;;;;;;5140033;27;20316;-80
2023/12/29 11:41:13;;;;;;;0.40;0.40;;;9.50;99.90;;;;;;5131731;27;20044;-78
2023/12/29 11:43:38;;;;;;;0.70;0.70;;;9.40;99.90;;;;;;5136834;27;20220;-77
2023/12/29 11:46:04;;;;;;;0.40;0.40;;;9.40;99.90;;;;;;5124094;27;20446;-76
2023/12/29 11:49:03;;;;;;;0.73;0.73;;;9.30;99.90;;;;;;5137351;27;20051;-78
2023/12/29 11:51:39;;;;;;;0.40;0.40;;;9.20;99.90;;;;;;5121324;27;20039;-78
2023/12/29 11:54:05;;;;;;;0.40;0.40;;;9.30;99.90;;;;;;5144969;27;20053;-78
2023/12/29 11:56:36;;;;;;;0.38;0.38;;;9.40;99.90;;;;;;5138102;27;20042;-79
2023/12/29 11:59:15;;;;;;;1.20;1.10;;;9.50;99.90;;;;;;5137630;27;20039;-76
2023/12/29 12:01:40;;;;;;;0.30;0.30;;;9.60;99.90;;;;;;5138894;27;20083;-77
2023/12/29 12:04:41;;;;;;;0.50;0.50;;;9.70;99.90;;;;;;5121355;27;20035;-82
2023/12/29 12:07:37;;;;;;;0.45;0.45;;;9.80;99.90;;;;;;5130032;27;20035;-77
2023/12/29 12:10:30;;;;;;;0.40;0.40;;;9.90;99.90;;;;;;5136307;27;20109;-78
2023/12/29 12:12:58;;;;;;;0.35;0.35;;;10.00;99.90;;;;;;5132607;27;20051;-80
2023/12/29 12:15:26;;;;;;;0.30;0.30;;;10.10;99.90;;;;;;5114521;27;20392;-81
2023/12/29 12:17:52;;;;;;;0.47;0.47;;;10.10;99.90;;;;;;5126641;27;20042;-80
2023/12/29 12:20:18;;;;;;;0.40;0.40;;;10.20;99.90;;;;;;5129614;27;20045;-81
2023/12/29 12:22:45;;;;;;;0.30;0.30;;;10.20;99.90;;;;;;5089986;27;20047;-81
2023/12/29 12:25:12;;;;;;;0.50;0.50;;;9.80;99.90;;;;;;5091802;27;20039;-82
2023/12/29 12:27:38;;;;;;;0.82;0.80;;;10.00;99.90;;;;;;5128393;27;20062;-81
2023/12/29 12:30:05;;;;;;;0.32;0.32;;;10.00;99.90;;;;;;5127641;27;20043;-82
2023/12/29 12:32:31;;;;;;;2.08;1.10;;;9.80;99.90;;;;;;5128931;27;20422;-80
2023/12/29 12:34:57;;;;;;;1.30;0.43;;;9.70;99.90;;;;;;5113193;27;20078;-81
2023/12/29 12:37:28;;;;;;;0.50;0.50;;;9.60;99.90;;;;;;5115526;27;20503;-81
2023/12/29 12:39:54;;;;;;;0.32;0.32;;;9.60;99.90;;;;;;5133750;27;20126;-80
2023/12/29 12:42:20;;;;;;;0.73;0.73;;;9.60;99.90;;;;;;5127350;27;20121;-81
2023/12/29 12:45:02;;;;;;;0.45;0.45;;;9.60;99.90;;;;;;5122849;27;20046;-82
2023/12/29 12:47:54;;;;;;;0.40;0.40;;;9.70;99.90;;;;;;5121452;27;20044;-81
2023/12/29 12:50:20;;;;;;;0.40;0.40;;;9.50;99.90;;;;;;5124040;27;20043;-80
2023/12/29 12:52:46;;;;;;;0.43;0.43;;;9.40;99.90;;;;;;5106855;27;20039;-81
2023/12/29 12:55:14;;;;;;;0.40;0.40;;;9.30;99.90;;;;;;5108729;28;20058;-81
2023/12/29 12:57:40;;;;;;;1.27;0.85;;;9.30;99.90;;;;;;5132951;27;20112;-82
2023/12/29 13:00:07;;;;;;;0.93;0.93;;;9.30;99.90;;;;;;5126308;27;20065;-82
2023/12/29 13:02:34;;;;;;;0.63;0.63;;;9.30;99.90;;;;;;5102981;28;20039;-81